METAR Data
IDs: Format: Raw Decoded Include TAF

Data at: 1746 UTC 16 Oct 2021

KJWY 161735Z AUTO 02007G14KT 10SM CLR 20/02 A3040 RMK AO2 T02020023
KJWY 161715Z AUTO 04010G15KT 10SM CLR 20/02 A3040 RMK AO2 T01990017
KJWY 161655Z AUTO 04005KT 10SM CLR 20/03 A3041 RMK AO2 T01990031
KJWY 161635Z AUTO 01006KT 10SM CLR 19/03 A3041 RMK AO2 T01890032
KJWY 161615Z AUTO 02006KT 10SM CLR 19/04 A3041 RMK AO2 T01880038
KJWY 161555Z AUTO 04007KT 10SM CLR 18/04 A3041 RMK AO2 T01820042
KJWY 161535Z AUTO 03005KT 10SM CLR 17/06 A3040 RMK AO2 T01740055
KJWY 161515Z AUTO 03005KT 10SM CLR 17/06 A3040 RMK AO2 T01710063
KJWY 161455Z AUTO 01005KT 10SM CLR 16/07 A3040 RMK AO2 T01600065
KJWY 161435Z AUTO 02005KT 10SM CLR 15/07 A3040 RMK AO2 T01520073
KJWY 161415Z AUTO 35006KT 10SM CLR 14/08 A3039 RMK AO2 T01410080
KJWY 161355Z AUTO 35006KT 10SM CLR 13/08 A3039 RMK AO2 T01290082
KJWY 161335Z AUTO 34006KT 10SM CLR 12/08 A3037 RMK AO2 T01150080
KJWY 161315Z AUTO 34005KT 10SM CLR 10/07 A3036 RMK AO2 T00950068
KJWY 161255Z AUTO 35005KT 10SM CLR 09/07 A3036 RMK AO2 T00890065
KJWY 161235Z AUTO 35006KT 10SM CLR 09/06 A3035 RMK AO2 T00880064
KJWY 161215Z AUTO 35005KT 10SM CLR 09/07 A3035 RMK AO2 T00890065
KJWY 161155Z AUTO 34005KT 10SM CLR 09/07 A3034 RMK AO2 T00900065 10119 20090
KJWY 161135Z AUTO 34005KT 10SM CLR 10/07 A3034 RMK AO2 T00950069
KJWY 161115Z AUTO 34005KT 10SM CLR 10/07 A3034 RMK AO2 T00970072
KJWY 161055Z AUTO 34005KT 10SM CLR 10/07 A3033 RMK AO2 T00960073
KJWY 161035Z AUTO 34005KT 10SM CLR 10/07 A3032 RMK AO2 T00960073
KJWY 161015Z AUTO 33005KT 10SM CLR 10/08 A3032 RMK AO2 T01000078
KJWY 160955Z AUTO 33005KT 10SM CLR 11/08 A3032 RMK AO2 T01050080
KJWY 160935Z AUTO 33004KT 10SM CLR 11/08 A3032 RMK AO2 T01100080
KJWY 160915Z AUTO 33005KT 10SM CLR 12/08 A3032 RMK AO2 T01150078
KJWY 160855Z AUTO 33005KT 10SM CLR 11/08 A3032 RMK AO2 T01100077
KJWY 160835Z AUTO 34005KT 10SM CLR 10/08 A3030 RMK AO2 T01000075
KJWY 160815Z AUTO 32004KT 10SM CLR 11/08 A3031 RMK AO2 T01050075
KJWY 160755Z AUTO 32003KT 10SM CLR 11/07 A3032 RMK AO2 T01130074
KJWY 160735Z AUTO 33005KT 10SM CLR 11/07 A3032 RMK AO2 T01130074
KJWY 160715Z AUTO 34005KT 10SM CLR 12/07 A3031 RMK AO2 T01150074
KJWY 160655Z AUTO 35006KT 10SM SCT110 11/08 A3030 RMK AO2 T01130075
KJWY 160635Z AUTO 35005KT 10SM SCT110 12/08 A3030 RMK AO2 T01180078
KJWY 160615Z AUTO 34005KT 10SM CLR 12/08 A3029 RMK AO2 T01160080
KJWY 160555Z AUTO 35005KT 10SM SCT120 12/08 A3028 RMK AO2 T01200080 10203 20120 402410120
KJWY 160535Z AUTO 34005KT 10SM CLR 12/08 A3028 RMK AO2 T01220082
KJWY 160515Z AUTO 34004KT 10SM CLR 13/08 A3028 RMK AO2 T01270084
KJWY 160455Z AUTO 33006KT 10SM SCT110 14/09 A3027 RMK AO2 T01380085
KJWY 160435Z AUTO 33007KT 10SM SCT110 14/09 A3026 RMK AO2 T01420085
KJWY 160415Z AUTO 34008KT 10SM SCT120 15/09 A3025 RMK AO2 T01470085
KJWY 160355Z AUTO 34010KT 10SM SCT120 16/08 A3024 RMK AO2 T01550082
KJWY 160335Z AUTO 35010KT 10SM SCT110 16/08 A3023 RMK AO2 T01570084
KJWY 160315Z AUTO 34005KT 10SM SCT120 15/08 A3022 RMK AO2 T01530081
KJWY 160255Z AUTO 34009KT 10SM SCT110 17/08 A3021 RMK AO2 T01650082
KJWY 160235Z AUTO 34010G16KT 10SM BKN110 17/08 A3020 RMK AO2 T01660083
KJWY 160215Z AUTO 34008KT 10SM SCT120 16/09 A3020 RMK AO2 T01630086
KJWY 160155Z AUTO 35008KT 10SM SCT120 16/09 A3019 RMK AO2 T01630090
KJWY 160135Z AUTO 34005KT 10SM SCT120 17/09 A3018 RMK AO2 T01690090
KJWY 160115Z AUTO 35006KT 10SM CLR 17/09 A3017 RMK AO2 T01720087
KJWY 160055Z AUTO 35011G17KT 10SM CLR 19/09 A3015 RMK AO2 T01860087
KJWY 160035Z AUTO 34010KT 10SM CLR 19/09 A3015 RMK AO2 T01870092
KJWY 160015Z AUTO 35009KT 10SM CLR 19/10 A3013 RMK AO2 T01920095
KJWY 152355Z AUTO 34013G19KT 10SM CLR 20/10 A3012 RMK AO2 T02040099 10241 20204
KJWY 152335Z AUTO 34011G15KT 10SM CLR 21/11 A3011 RMK AO2 T02120105
KJWY 152315Z AUTO 35011KT 10SM CLR 22/11 A3010 RMK AO2 T02200112
KJWY 152255Z AUTO 34017G25KT 10SM CLR 23/11 A3009 RMK AO2 T02250111
KJWY 152235Z AUTO 36013G23KT 10SM CLR 23/12 A3009 RMK AO2 T02290116
KJWY 152215Z AUTO 33011G21KT 10SM CLR 23/13 A3008 RMK AO2 T02340128
KJWY 152155Z AUTO 34014G23KT 10SM CLR 24/13 A3007 RMK AO2 T02360131
KJWY 152135Z AUTO 33015G22KT 10SM CLR 24/14 A3006 RMK AO2 T02380136
KJWY 152115Z AUTO 34016G24KT 10SM CLR 24/14 A3007 RMK AO2 T02360140
KJWY 152055Z AUTO 32017G22KT 10SM CLR 24/15 A3006 RMK AO2 T02370147
KJWY 152035Z AUTO 34016G24KT 10SM SCT030 23/15 A3005 RMK AO2 T02330150
KJWY 152015Z AUTO 33015G21KT 10SM BKN030 23/16 A3005 RMK AO2 T02270158
KJWY 151955Z AUTO 33016G21KT 10SM BKN027 24/16 A3004 RMK AO2 T02370161
KJWY 151935Z AUTO 33016G21KT 10SM BKN023 23/17 A3004 RMK AO2 T02310166
KJWY 151915Z AUTO 33014G21KT 10SM BKN023 24/17 A3003 RMK AO2 T02400171
KJWY 151855Z AUTO 31014G20KT 10SM SCT021 24/18 A3003 RMK AO2 T02380176
KJWY 151835Z AUTO 31015KT 10SM SCT021 24/18 A3003 RMK AO2 T02370179
KJWY 151815Z AUTO 32011G18KT 10SM BKN019 BKN030 24/18 A3003 RMK AO2 T02380181
KJWY 151755Z AUTO 32009G17KT 10SM SCT016 SCT022 OVC028 23/18 A3003 RMK AO2 T02250182 10239 20203
KJWY 151735Z AUTO 30014G21KT 10SM OVC016 22/18 A3003 RMK AO2 T02170181
KJWY 151715Z AUTO 30011G19KT 10SM BKN018 OVC024 22/19 A3003 RMK AO2 T02230186
KJWY 151655Z AUTO 30010G17KT 10SM BKN018 OVC024 22/19 A3002 RMK AO2 T02210187
KJWY 151635Z AUTO 28008G16KT 10SM SCT019 OVC024 23/19 A3001 RMK AO2 T02250189
KJWY 151615Z AUTO 30010G20KT 10SM OVC023 23/19 A3000 RMK AO2 T02310194
KJWY 151555Z AUTO 29011G15KT 10SM BKN024 24/20 A2999 RMK AO2 T02370199
KJWY 151535Z AUTO 27009G14KT 10SM BKN014 BKN022 BKN026 23/21 A2998 RMK AO2 T02320211
KJWY 151515Z AUTO 27010KT 10SM SCT009 BKN012 OVC020 23/23 A2997 RMK AO2 T02250225
KJWY 151455Z AUTO 24005KT 7SM BKN007 BKN012 OVC020 22/22 A2996 RMK AO2 T02200220
KJWY 151435Z AUTO 24004KT 5SM BR OVC007 22/22 A2995 RMK AO2 T02150215
KJWY 151415Z AUTO 24007KT 5SM BR OVC005 21/21 A2995 RMK AO2 T02110211
KJWY 151355Z AUTO 23005G14KT 5SM BR OVC005 21/21 A2993 RMK AO2 T02090209
KJWY 151335Z AUTO 23009G14KT 7SM BKN005 21/21 A2993 RMK AO2 T02100210
KJWY 151315Z AUTO 19006KT 5SM BR CLR 21/21 A2991 RMK AO2 T02050205
KJWY 151255Z AUTO 18003KT 5SM BR SCT004 20/20 A2990 RMK AO2 T02040204
KJWY 151235Z AUTO 00000KT 5SM BR BKN004 21/21 A2989 RMK AO2 T02060206
KJWY 151215Z AUTO 18005KT 7SM BKN004 21/21 A2989 RMK AO2 T02050205
KJWY 151155Z AUTO 18006KT 5SM BR BKN004 21/21 A2989 RMK AO2 T02050205 10211 20200
KJWY 151135Z AUTO 18006KT 5SM BR OVC004 21/21 A2989 RMK AO2 T02070207
KJWY 151115Z AUTO 20007KT 7SM OVC004 21/21 A2988 RMK AO2 T02110211
KJWY 151055Z AUTO 22004KT 7SM OVC004 21/21 A2989 RMK AO2 T02060206
KJWY 151035Z AUTO 18003KT 5SM BR SCT006 SCT120 20/20 A2987 RMK AO2 T02000200
KJWY 151015Z AUTO 18003KT 7SM CLR 20/20 A2987 RMK AO2 T02000200
KJWY 150955Z AUTO 18005KT 7SM CLR 20/20 A2987 RMK AO2 T02020202
KJWY 150935Z AUTO 18005KT 7SM CLR 20/20 A2986 RMK AO2 T02000200
KJWY 150915Z AUTO 19005KT 7SM CLR 20/20 A2986 RMK AO2 T02000200
KJWY 150855Z AUTO 18005KT 5SM BR CLR 20/20 A2986 RMK AO2 T02020202
KJWY 150835Z AUTO 18005KT 5SM BR CLR 20/20 A2986 RMK AO2 T02010201
KJWY 150815Z AUTO 18005KT 7SM CLR 20/20 A2986 RMK AO2 T02040204
KJWY 150755Z AUTO 18005KT 5SM BR SCT120 21/21 A2986 RMK AO2 T02060206
KJWY 150735Z AUTO 16005KT 7SM SCT120 21/21 A2986 RMK AO2 T02060206
KJWY 150715Z AUTO 15006KT 7SM SCT120 21/21 A2986 RMK AO2 T02060206
KJWY 150655Z AUTO 17004KT 7SM SCT110 21/21 A2987 RMK AO2 T02050205
KJWY 150635Z AUTO 18003KT 5SM BR CLR 21/21 A2987 RMK AO2 T02050205
KJWY 150615Z AUTO 17004KT 5SM BR SCT120 21/21 A2987 RMK AO2 T02070207
KJWY 150555Z AUTO 16004KT 7SM SCT120 21/21 A2987 RMK AO2 T02100210 10256 20210 402870186